createdAt,value
2023-01-29T00:01:45.537Z,220.25
2023-01-29T00:03:51.897Z,243.85
2023-01-29T00:05:55.521Z,241.02
2023-01-29T00:07:59.092Z,75.47
2023-01-29T00:10:02.522Z,134.82
2023-01-29T00:12:08.790Z,138.50
2023-01-29T00:14:12.547Z,157.43
2023-01-29T00:16:15.908Z,147.30
2023-01-29T00:18:20.642Z,151.25
2023-01-29T00:20:24.295Z,147.82
2023-01-29T00:22:27.735Z,156.80
2023-01-29T00:24:31.287Z,149.95
2023-01-29T00:26:34.743Z,152.85
2023-01-29T00:28:38.198Z,148.95
2023-01-29T00:30:42.071Z,151.13
2023-01-29T00:32:46.047Z,158.80
2023-01-29T00:34:51.062Z,143.82
2023-01-29T00:37:04.927Z,141.93
2023-01-29T00:39:10.818Z,150.77
2023-01-29T00:41:33.559Z,143.52
2023-01-29T00:43:54.608Z,139.57
2023-01-29T00:45:57.974Z,145.30
2023-01-29T00:48:01.896Z,161.23
2023-01-29T00:50:09.028Z,172.70
2023-01-29T00:52:27.613Z,154.95
2023-01-29T00:54:33.049Z,144.95
2023-01-29T00:56:38.100Z,144.27
2023-01-29T00:58:41.504Z,141.10
2023-01-29T01:00:45.020Z,145.95
2023-01-29T01:03:05.879Z,145.70
2023-01-29T01:05:14.100Z,153.20
2023-01-29T01:07:17.701Z,145.05
2023-01-29T01:09:46.810Z,144.13
2023-01-29T01:11:50.301Z,137.75
2023-01-29T01:13:55.021Z,142.45
2023-01-29T01:15:58.521Z,137.10
2023-01-29T01:18:03.275Z,151.82
2023-01-29T01:20:07.577Z,136.80
2023-01-29T01:22:12.977Z,137.85
2023-01-29T01:24:16.444Z,30.75
2023-01-29T01:26:20.101Z,141.60
2023-01-29T01:28:23.511Z,31.75
2023-01-29T01:30:27.782Z,138.80
2023-01-29T01:32:32.209Z,153.52
2023-01-29T01:34:35.796Z,32.08
2023-01-29T01:36:39.165Z,145.13
2023-01-29T01:38:45.484Z,141.63
2023-01-29T01:40:49.223Z,148.82
2023-01-29T01:42:55.629Z,36.65
2023-01-29T01:45:06.410Z,136.85
2023-01-29T01:47:09.966Z,195.57
2023-01-29T01:49:17.251Z,145.88
2023-01-29T01:51:23.021Z,148.73
2023-01-29T01:53:30.652Z,144.73
2023-01-29T01:55:39.642Z,154.25
2023-01-29T01:57:47.763Z,145.18
2023-01-29T01:59:56.381Z,139.13
2023-01-29T02:02:13.853Z,133.25
2023-01-29T02:04:38.819Z,174.73
2023-01-29T02:07:00.763Z,230.00
2023-01-29T02:09:27.118Z,50.25
2023-01-29T02:11:32.179Z,32.85
2023-01-29T02:13:35.932Z,270.67
2023-01-29T02:15:41.889Z,163.23
2023-01-29T02:17:48.176Z,279.70
2023-01-29T02:20:09.700Z,174.02
2023-01-29T02:22:30.275Z,284.50
2023-01-29T02:25:09.678Z,139.40
2023-01-29T02:27:18.752Z,36.67
2023-01-29T02:29:35.268Z,204.20
2023-01-29T02:31:45.262Z,172.68
2023-01-29T02:33:57.530Z,220.63
2023-01-29T02:36:12.337Z,195.43
2023-01-29T02:38:25.363Z,138.57
2023-01-29T02:40:32.763Z,20.08
2023-01-29T02:42:41.842Z,105.53
2023-01-29T02:44:52.576Z,113.20
2023-01-29T02:47:01.320Z,137.63
2023-01-29T02:49:15.272Z,149.57
2023-01-29T02:51:26.152Z,150.07
2023-01-29T02:53:37.995Z,146.20
2023-01-29T02:55:45.778Z,146.63
2023-01-29T02:57:52.487Z,143.55
2023-01-29T03:00:01.791Z,172.98
2023-01-29T03:02:11.513Z,136.20
2023-01-29T03:04:27.014Z,120.25
2023-01-29T03:06:36.304Z,136.48
2023-01-29T03:08:45.471Z,136.95
2023-01-29T03:10:54.890Z,138.10
2023-01-29T03:13:02.832Z,138.63
2023-01-29T03:15:16.959Z,111.65
2023-01-29T03:17:42.946Z,143.40
2023-01-29T03:19:48.367Z,141.70
2023-01-29T03:22:00.708Z,133.73
2023-01-29T03:24:27.565Z,138.65
2023-01-29T03:26:49.822Z,143.43
2023-01-29T03:29:11.216Z,144.93
2023-01-29T03:31:35.642Z,150.95
2023-01-29T03:33:46.303Z,254.40
2023-01-29T03:35:54.845Z,354.10
2023-01-29T03:37:59.417Z,358.98
2023-01-29T03:40:05.087Z,337.00
2023-01-29T03:42:18.581Z,115.15
2023-01-29T03:44:31.662Z,148.23
2023-01-29T03:46:42.861Z,17.95
2023-01-29T03:48:57.033Z,24.55
2023-01-29T03:51:08.947Z,183.00
2023-01-29T03:53:24.538Z,281.52
2023-01-29T03:55:36.339Z,357.75
2023-01-29T03:57:45.515Z,233.80
2023-01-29T03:59:59.637Z,284.50
2023-01-29T04:02:39.894Z,187.70
2023-01-29T04:04:51.961Z,138.57
2023-01-29T04:07:01.039Z,109.10
2023-01-29T04:09:07.791Z,133.25
2023-01-29T04:11:17.693Z,135.82
2023-01-29T04:13:22.670Z,156.48
2023-01-29T04:15:28.661Z,148.40
2023-01-29T04:17:36.890Z,155.60
2023-01-29T04:19:48.975Z,44.97
2023-01-29T04:22:01.394Z,31.33
2023-01-29T04:24:08.373Z,16.92
2023-01-29T04:26:29.179Z,17.70
2023-01-29T04:28:53.030Z,124.20
2023-01-29T04:31:01.668Z,138.40
2023-01-29T04:33:18.311Z,142.13
2023-01-29T04:35:30.674Z,142.02
2023-01-29T04:37:40.871Z,240.20
2023-01-29T04:39:50.703Z,269.15
2023-01-29T04:42:00.500Z,206.13
2023-01-29T04:44:09.612Z,160.75
2023-01-29T04:46:17.967Z,274.40
2023-01-29T04:48:29.089Z,265.25
2023-01-29T04:50:39.277Z,107.95
2023-01-29T04:52:52.595Z,46.22
2023-01-29T04:55:04.810Z,33.05
2023-01-29T04:57:15.553Z,145.88
2023-01-29T04:59:26.275Z,145.18
2023-01-29T05:01:33.191Z,148.85
2023-01-29T05:03:41.661Z,28.65
2023-01-29T05:05:47.969Z,42.75
2023-01-29T05:07:51.536Z,32.08
2023-01-29T05:09:55.999Z,19.95
2023-01-29T05:12:00.009Z,17.17
2023-01-29T05:14:08.073Z,17.33
2023-01-29T05:16:17.863Z,25.10
2023-01-29T05:18:21.595Z,18.00
2023-01-29T05:20:26.529Z,125.25
2023-01-29T05:22:31.035Z,39.35
2023-01-29T05:24:36.851Z,84.00
2023-01-29T05:26:58.415Z,17.90
2023-01-29T05:29:01.922Z,22.58
2023-01-29T05:31:05.465Z,49.25
2023-01-29T05:33:15.369Z,180.82
2023-01-29T05:35:18.871Z,113.55
2023-01-29T05:37:23.737Z,171.77
2023-01-29T05:39:27.271Z,151.20
2023-01-29T05:41:30.745Z,144.70
2023-01-29T05:43:34.309Z,138.77
2023-01-29T05:45:37.773Z,141.27
2023-01-29T05:47:41.374Z,145.52
2023-01-29T05:49:44.959Z,37.10
2023-01-29T05:51:48.408Z,136.52
2023-01-29T05:53:53.287Z,137.73
2023-01-29T05:55:57.477Z,53.00
2023-01-29T05:58:00.943Z,173.23
2023-01-29T06:00:05.790Z,32.95
2023-01-29T06:02:16.409Z,113.68
2023-01-29T06:04:19.947Z,290.83
2023-01-29T06:06:23.477Z,171.43
2023-01-29T06:08:27.022Z,174.02
2023-01-29T06:10:31.941Z,178.25
2023-01-29T06:12:35.483Z,166.93
2023-01-29T06:14:39.011Z,134.30
2023-01-29T06:16:42.477Z,292.48
2023-01-29T06:18:45.912Z,161.93
2023-01-29T06:20:49.301Z,159.70
2023-01-29T06:22:52.708Z,238.00
2023-01-29T06:24:56.160Z,263.63
2023-01-29T06:27:00.915Z,142.18
2023-01-29T06:29:05.607Z,135.75
2023-01-29T06:31:27.411Z,148.88
2023-01-29T06:33:32.770Z,46.65
2023-01-29T06:35:36.187Z,30.15
2023-01-29T06:37:39.593Z,258.92
2023-01-29T06:39:42.992Z,143.20
2023-01-29T06:41:46.466Z,39.75
2023-01-29T06:43:51.254Z,34.83
2023-01-29T06:45:56.307Z,211.13
2023-01-29T06:48:01.387Z,189.00
2023-01-29T06:50:05.718Z,185.73
2023-01-29T06:52:09.295Z,24.27
2023-01-29T06:54:12.752Z,138.68
2023-01-29T06:56:16.170Z,99.50
2023-01-29T06:58:19.816Z,216.60
2023-01-29T07:00:24.803Z,121.00
2023-01-29T07:02:28.373Z,177.18
2023-01-29T07:04:31.995Z,169.68
2023-01-29T07:06:35.478Z,208.25
2023-01-29T07:08:39.583Z,85.65
2023-01-29T07:10:42.944Z,250.90
2023-01-29T07:12:46.398Z,108.65
2023-01-29T07:14:49.820Z,160.73
2023-01-29T07:16:54.545Z,231.45
2023-01-29T07:18:58.035Z,53.28
2023-01-29T07:21:05.615Z,162.57
2023-01-29T07:23:11.991Z,120.95
2023-01-29T07:25:15.612Z,193.57
2023-01-29T07:27:19.163Z,61.70
2023-01-29T07:29:22.701Z,142.10
2023-01-29T07:31:26.248Z,140.07
2023-01-29T07:33:31.183Z,226.25
2023-01-29T07:35:38.426Z,187.13
2023-01-29T07:37:41.998Z,131.10
2023-01-29T07:39:46.553Z,163.55
2023-01-29T07:41:50.303Z,179.70
2023-01-29T07:43:53.926Z,182.88
2023-01-29T07:45:57.521Z,190.13
2023-01-29T07:48:01.349Z,156.43
2023-01-29T07:50:07.039Z,233.32
2023-01-29T07:52:10.583Z,193.68
2023-01-29T07:54:14.083Z,258.98
2023-01-29T07:56:17.552Z,215.30
2023-01-29T07:58:21.177Z,142.88
2023-01-29T08:00:24.893Z,39.65
2023-01-29T08:02:28.405Z,128.95
2023-01-29T08:04:31.965Z,131.95
2023-01-29T08:06:37.179Z,174.07
2023-01-29T08:08:40.761Z,169.20
2023-01-29T08:10:44.320Z,204.18
2023-01-29T08:12:47.766Z,223.85
2023-01-29T08:14:51.319Z,169.82
2023-01-29T08:16:54.976Z,183.10
2023-01-29T08:18:58.441Z,146.35
2023-01-29T08:21:02.628Z,150.32
2023-01-29T08:23:09.497Z,17.50
2023-01-29T08:25:13.420Z,29.48
2023-01-29T08:27:16.966Z,25.60
2023-01-29T08:29:20.469Z,28.92
2023-01-29T08:31:24.434Z,29.48
2023-01-29T08:33:38.604Z,30.17
2023-01-29T08:35:43.366Z,54.38
2023-01-29T08:37:54.534Z,99.45
2023-01-29T08:39:59.615Z,50.67
2023-01-29T08:42:03.103Z,101.63
2023-01-29T08:44:06.904Z,22.70
2023-01-29T08:46:10.625Z,22.25
2023-01-29T08:48:14.413Z,20.48
2023-01-29T08:50:19.228Z,17.92
2023-01-29T08:52:22.983Z,21.00
2023-01-29T08:54:26.610Z,20.73
2023-01-29T08:56:31.534Z,19.90
2023-01-29T08:58:35.170Z,19.55
2023-01-29T09:00:38.826Z,20.58
2023-01-29T09:02:42.776Z,19.73
2023-01-29T09:04:46.386Z,24.25
2023-01-29T09:06:50.059Z,30.13
2023-01-29T09:08:53.590Z,23.95
2023-01-29T09:10:59.919Z,22.80
2023-01-29T09:13:05.283Z,20.25
2023-01-29T09:15:10.163Z,23.10
2023-01-29T09:17:13.938Z,21.67
2023-01-29T09:19:17.433Z,21.55
2023-01-29T09:21:21.179Z,19.65
2023-01-29T09:23:25.337Z,21.75
2023-01-29T09:25:29.070Z,22.52
2023-01-29T09:27:32.765Z,21.63
2023-01-29T09:29:37.916Z,20.95
2023-01-29T09:31:41.828Z,18.70
2023-01-29T09:33:45.525Z,19.38
2023-01-29T09:35:49.119Z,19.60
2023-01-29T09:37:53.168Z,22.92
2023-01-29T09:39:56.783Z,21.35
2023-01-29T09:42:08.380Z,22.10
2023-01-29T09:44:20.265Z,22.35
2023-01-29T09:46:31.926Z,23.83
2023-01-29T09:48:38.111Z,20.90
2023-01-29T09:50:44.659Z,21.38
2023-01-29T09:52:54.892Z,21.05
2023-01-29T09:55:05.521Z,22.80
2023-01-29T09:57:14.074Z,20.65
2023-01-29T09:59:21.876Z,26.77
2023-01-29T10:01:33.849Z,27.20
2023-01-29T10:03:56.139Z,25.83
2023-01-29T10:06:20.140Z,23.17
2023-01-29T10:08:42.482Z,25.35
2023-01-29T10:10:51.773Z,22.35
2023-01-29T10:13:08.612Z,23.13
2023-01-29T10:15:25.893Z,22.65
2023-01-29T10:17:43.775Z,21.85
2023-01-29T10:20:04.171Z,23.67
2023-01-29T10:22:32.796Z,22.63
2023-01-29T10:24:39.430Z,20.65
2023-01-29T10:26:42.912Z,21.48
2023-01-29T10:28:50.148Z,24.05
2023-01-29T10:30:58.719Z,23.02
2023-01-29T10:33:06.170Z,22.40
2023-01-29T10:35:18.990Z,23.52
2023-01-29T10:37:25.621Z,23.63
2023-01-29T10:39:32.173Z,22.33
2023-01-29T10:41:58.961Z,22.77
2023-01-29T10:44:16.518Z,22.63
2023-01-29T10:46:29.744Z,23.75
2023-01-29T10:48:45.840Z,22.63
2023-01-29T10:50:52.993Z,21.80
2023-01-29T10:53:37.076Z,21.70
2023-01-29T10:55:49.961Z,20.85
2023-01-29T10:58:03.196Z,21.85
2023-01-29T11:00:14.313Z,23.27
2023-01-29T11:02:21.331Z,23.92
2023-01-29T11:04:27.823Z,22.80
2023-01-29T11:06:33.315Z,22.85
2023-01-29T11:08:43.523Z,22.58
2023-01-29T11:10:55.864Z,23.25
2023-01-29T11:13:00.787Z,20.63
2023-01-29T11:15:07.820Z,20.83
2023-01-29T11:17:16.789Z,23.52
2023-01-29T11:19:41.091Z,22.60
2023-01-29T11:21:57.724Z,24.27
2023-01-29T11:24:12.817Z,23.15
2023-01-29T11:26:20.831Z,20.55
2023-01-29T11:28:38.171Z,26.20
2023-01-29T11:30:42.799Z,21.40
2023-01-29T11:32:52.074Z,24.25
2023-01-29T11:35:02.113Z,23.10
2023-01-29T11:37:16.042Z,23.33
2023-01-29T11:39:22.643Z,21.88
2023-01-29T11:41:26.160Z,28.17
2023-01-29T11:43:32.191Z,27.75
2023-01-29T11:45:40.887Z,25.30
2023-01-29T11:47:50.199Z,21.20
2023-01-29T11:49:56.540Z,21.33
2023-01-29T11:52:04.784Z,24.27
2023-01-29T11:54:18.109Z,20.83
2023-01-29T11:56:25.801Z,20.17
2023-01-29T11:58:32.127Z,22.58
2023-01-29T12:00:37.679Z,22.80
2023-01-29T12:02:45.063Z,22.23
2023-01-29T12:04:49.543Z,21.80
2023-01-29T12:06:54.595Z,22.02
2023-01-29T12:09:02.573Z,23.17
2023-01-29T12:11:10.845Z,21.42
2023-01-29T12:13:27.099Z,24.30
2023-01-29T12:15:30.643Z,20.08
2023-01-29T12:17:39.180Z,26.70
2023-01-29T12:19:47.856Z,24.27
2023-01-29T12:21:59.102Z,23.15
2023-01-29T12:24:09.358Z,25.38
2023-01-29T12:26:17.829Z,24.35
2023-01-29T12:28:32.946Z,20.58
2023-01-29T12:30:41.214Z,23.67
2023-01-29T12:32:50.924Z,24.83
2023-01-29T12:34:58.787Z,23.08
2023-01-29T12:37:13.013Z,21.95
2023-01-29T12:39:18.581Z,20.77
2023-01-29T12:41:44.539Z,21.90
2023-01-29T12:43:54.838Z,20.17
2023-01-29T12:46:00.939Z,21.95
2023-01-29T12:48:11.368Z,22.00
2023-01-29T12:50:21.142Z,23.85
2023-01-29T12:52:35.903Z,20.65
2023-01-29T12:54:47.208Z,23.63
2023-01-29T12:56:54.180Z,21.63
2023-01-29T12:59:01.300Z,23.85
2023-01-29T13:01:13.527Z,22.35
2023-01-29T13:03:22.261Z,22.35
2023-01-29T13:05:28.264Z,22.52
2023-01-29T13:07:35.384Z,20.70
2023-01-29T13:09:44.962Z,22.23
2023-01-29T13:11:54.479Z,22.95
2023-01-29T13:14:02.165Z,20.65
2023-01-29T13:16:13.416Z,21.88
2023-01-29T13:18:33.210Z,22.42
2023-01-29T13:20:36.780Z,20.65
2023-01-29T13:22:44.298Z,22.40
2023-01-29T13:25:03.310Z,21.80
2023-01-29T13:27:08.513Z,21.48
2023-01-29T13:29:22.958Z,20.90
2023-01-29T13:31:31.564Z,20.75
2023-01-29T13:33:35.332Z,23.17
2023-01-29T13:35:43.082Z,22.27
2023-01-29T13:37:51.090Z,20.98
2023-01-29T13:39:58.178Z,22.50
2023-01-29T13:42:03.955Z,21.73
2023-01-29T13:44:19.016Z,22.35
2023-01-29T13:46:22.744Z,19.75
2023-01-29T13:48:28.845Z,27.60
2023-01-29T13:50:38.347Z,20.52
2023-01-29T13:52:45.131Z,22.60
2023-01-29T13:54:54.790Z,20.80
2023-01-29T13:57:02.175Z,20.35
2023-01-29T13:59:07.220Z,19.92
2023-01-29T14:01:11.046Z,18.65
2023-01-29T14:04:09.969Z,19.05
2023-01-29T14:06:33.587Z,19.85
2023-01-29T14:08:44.283Z,20.35
2023-01-29T14:11:07.848Z,20.00
2023-01-29T14:13:35.304Z,17.50
2023-01-29T14:15:40.379Z,19.10
2023-01-29T14:18:06.402Z,18.25
2023-01-29T14:20:19.468Z,17.52
2023-01-29T14:22:25.086Z,20.45
2023-01-29T14:24:32.103Z,17.98
2023-01-29T14:26:45.454Z,17.13
2023-01-29T14:28:58.869Z,18.95
2023-01-29T14:31:02.640Z,18.38
2023-01-29T14:33:07.099Z,18.27
2023-01-29T14:35:19.820Z,16.95
2023-01-29T14:37:29.975Z,17.75
2023-01-29T14:39:37.889Z,18.08
2023-01-29T14:41:44.585Z,19.80
2023-01-29T14:43:48.066Z,18.15
2023-01-29T14:45:52.929Z,18.25
2023-01-29T14:48:01.727Z,19.70
2023-01-29T14:50:46.075Z,19.40
2023-01-29T14:52:53.977Z,19.90
2023-01-29T14:55:01.601Z,20.40
2023-01-29T14:57:10.184Z,18.90
2023-01-29T14:59:19.067Z,16.48
2023-01-29T15:01:31.176Z,17.70
2023-01-29T15:03:44.199Z,18.75
2023-01-29T15:05:49.165Z,19.95
2023-01-29T15:07:56.695Z,18.83
2023-01-29T15:10:22.481Z,19.85
2023-01-29T15:12:34.457Z,21.20
2023-01-29T15:14:44.456Z,22.63
2023-01-29T15:16:57.723Z,18.08
2023-01-29T15:19:14.457Z,18.00
2023-01-29T15:21:19.936Z,17.30
2023-01-29T15:23:27.846Z,18.50
2023-01-29T15:25:37.983Z,17.63
2023-01-29T15:27:43.352Z,16.13
2023-01-29T15:29:55.691Z,19.75
2023-01-29T15:32:01.515Z,18.17
2023-01-29T15:34:08.654Z,20.17
2023-01-29T15:36:20.702Z,18.30
2023-01-29T15:38:26.732Z,27.65
2023-01-29T15:40:30.562Z,24.90
2023-01-29T15:42:46.268Z,19.88
2023-01-29T15:44:49.909Z,19.15
2023-01-29T15:46:58.366Z,18.25
2023-01-29T15:49:08.892Z,16.92
2023-01-29T15:51:18.069Z,16.02
2023-01-29T15:53:28.162Z,14.90
2023-01-29T15:55:32.760Z,16.58
2023-01-29T15:57:40.414Z,13.95
2023-01-29T15:59:46.339Z,14.73
2023-01-29T16:01:50.812Z,15.77
2023-01-29T16:03:57.779Z,14.23
2023-01-29T16:06:07.016Z,15.15
2023-01-29T16:08:15.076Z,18.30
2023-01-29T16:10:21.333Z,14.88
2023-01-29T16:12:25.831Z,14.35
2023-01-29T16:14:31.763Z,13.80
2023-01-29T16:16:35.836Z,13.18
2023-01-29T16:18:50.793Z,14.27
2023-01-29T16:21:08.810Z,13.00
2023-01-29T16:23:19.322Z,12.20
2023-01-29T16:25:23.208Z,11.27
2023-01-29T16:27:27.498Z,11.57
2023-01-29T16:29:33.764Z,10.20
2023-01-29T16:31:39.021Z,10.70
2023-01-29T16:33:45.462Z,9.65
2023-01-29T16:35:52.679Z,7.90
2023-01-29T16:38:03.677Z,7.15
2023-01-29T16:40:14.803Z,9.43
2023-01-29T16:42:25.206Z,8.50
2023-01-29T16:44:34.307Z,9.30
2023-01-29T16:46:39.441Z,7.28
2023-01-29T16:48:43.136Z,7.47
2023-01-29T16:50:54.983Z,7.70
2023-01-29T16:53:03.781Z,7.05
2023-01-29T16:55:25.659Z,7.30
2023-01-29T16:57:33.027Z,6.60
2023-01-29T16:59:40.717Z,7.00
2023-01-29T17:01:44.615Z,8.82
2023-01-29T17:03:56.359Z,7.38
2023-01-29T17:06:00.742Z,6.85
2023-01-29T17:08:06.900Z,7.68
2023-01-29T17:10:18.889Z,8.30
2023-01-29T17:12:25.363Z,8.10
2023-01-29T17:14:32.155Z,7.57
2023-01-29T17:16:38.245Z,8.30
2023-01-29T17:18:41.887Z,7.97
2023-01-29T17:20:45.507Z,8.43
2023-01-29T17:22:49.087Z,7.80
2023-01-29T17:24:54.082Z,8.52
2023-01-29T17:26:57.647Z,9.77
2023-01-29T17:29:01.309Z,10.73
2023-01-29T17:31:07.223Z,9.20
2023-01-29T17:33:14.723Z,8.45
2023-01-29T17:35:18.853Z,8.15
2023-01-29T17:37:22.583Z,9.25
2023-01-29T17:39:26.238Z,9.73
2023-01-29T17:41:31.712Z,10.57
2023-01-29T17:43:36.241Z,10.18
2023-01-29T17:45:40.488Z,10.65
2023-01-29T17:47:44.119Z,11.68
2023-01-29T17:49:47.856Z,11.82
2023-01-29T17:51:52.024Z,10.02
2023-01-29T17:53:55.592Z,10.10
2023-01-29T17:55:59.123Z,9.38
2023-01-29T17:58:04.198Z,10.60
2023-01-29T18:00:16.197Z,9.80
2023-01-29T18:02:29.126Z,10.77
2023-01-29T18:04:33.358Z,9.80
2023-01-29T18:06:37.394Z,7.85
2023-01-29T18:08:41.183Z,9.25
2023-01-29T18:10:45.270Z,9.65
2023-01-29T18:12:48.929Z,8.65
2023-01-29T18:14:54.007Z,9.43
2023-01-29T18:16:58.286Z,10.27
2023-01-29T18:19:02.000Z,9.32
2023-01-29T18:21:05.945Z,9.50
2023-01-29T18:23:09.797Z,9.18
2023-01-29T18:25:13.661Z,7.43
2023-01-29T18:27:17.245Z,8.15
2023-01-29T18:29:20.891Z,10.20
2023-01-29T18:31:25.905Z,10.23
2023-01-29T18:33:29.554Z,8.90
2023-01-29T18:35:33.167Z,9.68
2023-01-29T18:37:36.891Z,10.00
2023-01-29T18:39:40.622Z,9.10
2023-01-29T18:41:44.373Z,10.50
2023-01-29T18:43:47.984Z,9.82
2023-01-29T18:45:51.655Z,13.63
2023-01-29T18:47:57.568Z,11.23
2023-01-29T18:50:01.045Z,10.45
2023-01-29T18:52:04.531Z,10.73
2023-01-29T18:54:08.099Z,10.20
2023-01-29T18:56:11.858Z,13.82
2023-01-29T18:58:28.202Z,12.00
2023-01-29T19:00:39.140Z,11.82
2023-01-29T19:02:42.958Z,10.20
2023-01-29T19:04:47.923Z,10.50
2023-01-29T19:06:51.488Z,9.95
2023-01-29T19:08:54.914Z,10.20
2023-01-29T19:11:02.055Z,12.90
2023-01-29T19:13:06.652Z,13.00
2023-01-29T19:15:11.284Z,11.63
2023-01-29T19:17:15.002Z,11.70
2023-01-29T19:19:20.756Z,11.70
2023-01-29T19:21:25.646Z,10.30
2023-01-29T19:23:29.560Z,10.60
2023-01-29T19:25:32.951Z,10.27
2023-01-29T19:27:36.376Z,10.27
2023-01-29T19:29:39.778Z,9.50
2023-01-29T19:31:43.564Z,10.45
2023-01-29T19:33:46.959Z,9.85
2023-01-29T19:35:51.019Z,10.52
2023-01-29T19:37:56.021Z,11.75
2023-01-29T19:39:59.724Z,11.50
2023-01-29T19:42:03.112Z,10.18
2023-01-29T19:44:06.814Z,11.75
2023-01-29T19:46:11.420Z,10.90
2023-01-29T19:48:15.812Z,12.50
2023-01-29T19:50:19.411Z,12.02
2023-01-29T19:52:51.133Z,17.35
2023-01-29T19:54:56.505Z,25.80
2023-01-29T19:56:59.950Z,15.80
2023-01-29T19:59:05.028Z,17.60
2023-01-29T20:01:15.127Z,19.70
2023-01-29T20:03:18.500Z,17.55
2023-01-29T20:05:23.389Z,14.75
2023-01-29T20:07:26.970Z,14.82
2023-01-29T20:09:30.371Z,11.75
2023-01-29T20:11:35.281Z,12.18
2023-01-29T20:13:38.748Z,11.77
2023-01-29T20:15:45.676Z,13.10
2023-01-29T20:17:49.190Z,11.57
2023-01-29T20:19:52.645Z,10.77
2023-01-29T20:21:56.076Z,11.57
2023-01-29T20:23:59.632Z,12.15
2023-01-29T20:26:03.911Z,10.38
2023-01-29T20:28:12.605Z,11.05
2023-01-29T20:30:16.665Z,12.70
2023-01-29T20:32:20.259Z,13.18
2023-01-29T20:34:24.000Z,13.90
2023-01-29T20:36:27.496Z,13.90
2023-01-29T20:38:31.851Z,13.55
2023-01-29T20:40:35.342Z,12.73
2023-01-29T20:42:38.803Z,14.02
2023-01-29T20:44:43.662Z,13.73
2023-01-29T20:46:47.262Z,13.40
2023-01-29T20:48:53.165Z,14.45
2023-01-29T20:50:57.008Z,14.10
2023-01-29T20:53:00.432Z,12.25
2023-01-29T20:55:04.596Z,13.85
2023-01-29T20:57:08.148Z,14.95
2023-01-29T20:59:11.610Z,15.90
2023-01-29T21:01:17.940Z,13.50
2023-01-29T21:03:21.416Z,14.20
2023-01-29T21:05:24.858Z,14.23
2023-01-29T21:07:28.268Z,12.75
2023-01-29T21:09:31.697Z,12.45
2023-01-29T21:11:35.179Z,12.07
2023-01-29T21:13:38.965Z,11.57
2023-01-29T21:15:43.012Z,14.95
2023-01-29T21:17:48.771Z,13.20
2023-01-29T21:19:52.219Z,11.13
2023-01-29T21:21:57.830Z,15.18
2023-01-29T21:24:01.375Z,13.15
2023-01-29T21:26:05.899Z,16.58
2023-01-29T21:28:09.306Z,18.73
2023-01-29T21:30:13.340Z,15.52
2023-01-29T21:32:18.214Z,14.77
2023-01-29T21:34:22.993Z,15.75
2023-01-29T21:36:26.484Z,14.63
2023-01-29T21:38:29.869Z,11.73
2023-01-29T21:40:34.328Z,11.98
2023-01-29T21:42:54.536Z,12.70
2023-01-29T21:44:58.221Z,11.43
2023-01-29T21:47:02.007Z,12.98
2023-01-29T21:49:05.656Z,13.55
2023-01-29T21:51:10.388Z,15.18
2023-01-29T21:53:13.817Z,14.85
2023-01-29T21:55:17.271Z,15.95
2023-01-29T21:57:20.794Z,14.05
2023-01-29T21:59:24.218Z,13.85
2023-01-29T22:01:38.043Z,13.60
2023-01-29T22:03:42.114Z,12.30
2023-01-29T22:05:45.598Z,14.40
2023-01-29T22:07:51.075Z,13.50
2023-01-29T22:09:54.855Z,14.35
2023-01-29T22:11:58.456Z,13.88
2023-01-29T22:14:01.858Z,15.77
2023-01-29T22:16:05.936Z,13.82
2023-01-29T22:18:09.453Z,14.43
2023-01-29T22:20:14.570Z,12.80
2023-01-29T22:22:19.659Z,13.13
2023-01-29T22:24:24.571Z,12.50
2023-01-29T22:26:29.557Z,11.82
2023-01-29T22:28:33.012Z,12.07
2023-01-29T22:30:36.610Z,13.95
2023-01-29T22:32:40.069Z,16.35
2023-01-29T22:34:43.585Z,13.90
2023-01-29T22:36:46.969Z,14.13
2023-01-29T22:38:50.324Z,13.95
2023-01-29T22:40:58.092Z,12.65
2023-01-29T22:43:02.171Z,12.95
2023-01-29T22:45:06.145Z,12.63
2023-01-29T22:47:09.531Z,14.48
2023-01-29T22:49:13.144Z,13.35
2023-01-29T22:51:16.604Z,11.00
2023-01-29T22:53:20.128Z,13.32
2023-01-29T22:55:23.545Z,12.35
2023-01-29T22:57:28.306Z,12.05
2023-01-29T22:59:31.757Z,12.90
2023-01-29T23:01:35.167Z,12.02
2023-01-29T23:03:38.601Z,13.00
2023-01-29T23:05:41.995Z,12.00
2023-01-29T23:07:45.627Z,12.80
2023-01-29T23:09:49.027Z,13.70
2023-01-29T23:11:52.382Z,11.93
2023-01-29T23:13:57.130Z,13.63
2023-01-29T23:16:00.708Z,11.98
2023-01-29T23:18:04.819Z,13.07
2023-01-29T23:20:09.747Z,14.20
2023-01-29T23:22:13.153Z,13.45
2023-01-29T23:24:16.764Z,14.57
2023-01-29T23:26:37.808Z,12.52
2023-01-29T23:28:41.270Z,11.65
2023-01-29T23:30:47.787Z,12.65
2023-01-29T23:32:51.506Z,12.05
2023-01-29T23:34:55.039Z,11.65
2023-01-29T23:36:58.490Z,12.48
2023-01-29T23:39:01.933Z,10.98
2023-01-29T23:41:05.507Z,11.95
2023-01-29T23:43:08.865Z,10.77
2023-01-29T23:45:12.480Z,12.75
2023-01-29T23:47:17.263Z,12.15
2023-01-29T23:49:20.930Z,11.75
2023-01-29T23:51:24.362Z,12.38
2023-01-29T23:53:27.811Z,11.68
2023-01-29T23:55:31.203Z,10.65
2023-01-29T23:57:34.614Z,11.05
2023-01-29T23:59:37.989Z,12.18
